Time;durP1;ratioP1;P1;durP2;ratioP2;P2;SDS_P1;SDS_P2;PMS_P1;PMS_P2;Temp;Humidity;BMP_temperature;BMP_pressure;BME280_temperature;BME280_humidity;BME280_pressure;Samples;Min_cycle;Max_cycle;Signal;HPM_P1;HPM_P2
2023/10/21 00:01:42;;;;;;;16.57;12.00;;;21.90;57.80;;;;;;5037152;28;20257;-66
2023/10/21 00:04:08;;;;;;;14.90;12.00;;;21.90;57.80;;;;;;5053353;28;20724;-66
2023/10/21 00:06:34;;;;;;;14.37;11.93;;;21.90;57.80;;;;;;5055634;28;20237;-67
2023/10/21 00:09:00;;;;;;;16.00;12.20;;;21.90;57.80;;;;;;5056167;28;20451;-67
2023/10/21 00:11:25;;;;;;;18.90;12.70;;;21.90;57.80;;;;;;5055308;28;20401;-67
2023/10/21 00:13:51;;;;;;;15.60;12.07;;;21.90;57.80;;;;;;5045102;28;20825;-66
2023/10/21 00:16:16;;;;;;;18.07;12.33;;;21.90;57.80;;;;;;5035776;28;20270;-68
2023/10/21 00:18:42;;;;;;;16.37;11.00;;;21.90;57.80;;;;;;5055691;28;20222;-67
2023/10/21 00:21:07;;;;;;;16.90;12.27;;;21.90;57.80;;;;;;5043436;28;20266;-67
2023/10/21 00:23:33;;;;;;;16.43;12.57;;;21.90;57.80;;;;;;5036430;28;20286;-67
2023/10/21 00:26:03;;;;;;;12.80;11.50;;;21.90;57.80;;;;;;5039867;28;20199;-68
2023/10/21 00:28:28;;;;;;;16.13;12.60;;;21.90;57.80;;;;;;5038111;28;20262;-66
2023/10/21 00:30:54;;;;;;;13.83;11.10;;;21.90;57.80;;;;;;5041008;28;20579;-67
2023/10/21 00:33:20;;;;;;;16.10;11.90;;;21.90;57.80;;;;;;5055822;28;20175;-67
2023/10/21 00:35:46;;;;;;;16.30;11.53;;;21.90;57.80;;;;;;5040931;28;20234;-67
2023/10/21 00:38:12;;;;;;;13.63;10.87;;;21.90;57.80;;;;;;5046612;28;20187;-67
2023/10/21 00:40:37;;;;;;;13.90;11.50;;;21.90;57.80;;;;;;5038977;28;20438;-67
2023/10/21 00:43:04;;;;;;;14.00;10.80;;;21.90;57.80;;;;;;5054573;28;20922;-68
2023/10/21 00:45:30;;;;;;;15.33;11.10;;;21.90;57.80;;;;;;5036131;28;20200;-67
2023/10/21 00:47:55;;;;;;;14.03;10.83;;;21.90;57.70;;;;;;5036210;28;20561;-66
2023/10/21 00:50:21;;;;;;;13.03;10.63;;;21.90;57.70;;;;;;5047261;28;20184;-67
2023/10/21 00:52:48;;;;;;;14.40;10.70;;;21.90;57.70;;;;;;5035940;28;20225;-67
2023/10/21 00:55:13;;;;;;;16.43;11.20;;;21.90;57.70;;;;;;5034452;28;20188;-66
2023/10/21 00:57:40;;;;;;;14.17;11.43;;;21.90;57.80;;;;;;5035484;28;20963;-67
2023/10/21 01:00:11;;;;;;;13.23;10.10;;;21.90;57.80;;;;;;5035062;28;20542;-68
2023/10/21 01:02:42;;;;;;;14.37;10.10;;;21.90;57.80;;;;;;5041060;28;20493;-67
2023/10/21 01:05:08;;;;;;;17.60;10.57;;;21.90;57.80;;;;;;5039441;28;20516;-67
2023/10/21 01:07:36;;;;;;;14.90;12.20;;;21.90;57.70;;;;;;5034933;28;21120;-67
2023/10/21 01:10:05;;;;;;;12.80;10.40;;;21.90;57.70;;;;;;5035568;28;20438;-69
2023/10/21 01:12:30;;;;;;;13.33;9.93;;;21.90;57.70;;;;;;5034635;28;20750;-67
2023/10/21 01:14:56;;;;;;;16.20;10.73;;;21.90;57.70;;;;;;5034573;28;20453;-68
2023/10/21 01:17:22;;;;;;;14.53;10.90;;;21.90;57.70;;;;;;5045654;28;20195;-66
2023/10/21 01:19:48;;;;;;;13.37;10.67;;;21.90;57.70;;;;;;5055408;28;20187;-68
2023/10/21 01:22:14;;;;;;;14.53;11.13;;;21.90;57.70;;;;;;5055106;28;20238;-68
2023/10/21 01:24:40;;;;;;;14.40;10.47;;;21.90;57.80;;;;;;5053774;28;20457;-67
2023/10/21 01:27:05;;;;;;;12.00;10.67;;;21.90;57.70;;;;;;5054219;28;20175;-68
2023/10/21 01:29:31;;;;;;;14.97;10.67;;;21.90;57.70;;;;;;5050032;28;20183;-66
2023/10/21 01:31:57;;;;;;;12.40;10.13;;;21.90;57.70;;;;;;5035287;28;20168;-68
2023/10/21 01:34:22;;;;;;;14.50;11.57;;;21.90;57.70;;;;;;5035368;28;20374;-67
2023/10/21 01:36:48;;;;;;;15.30;11.10;;;21.90;57.70;;;;;;5037685;28;20208;-67
2023/10/21 01:39:14;;;;;;;12.33;9.80;;;21.90;57.70;;;;;;5040095;28;20197;-67
2023/10/21 01:41:40;;;;;;;13.10;10.00;;;21.90;57.70;;;;;;5035166;28;20179;-67
2023/10/21 01:44:05;;;;;;;14.73;10.03;;;21.90;57.70;;;;;;5034341;28;20531;-67
2023/10/21 01:46:31;;;;;;;13.13;10.10;;;21.90;57.70;;;;;;5041780;28;20222;-67
2023/10/21 01:48:57;;;;;;;14.40;10.43;;;21.90;57.70;;;;;;5049715;28;20171;-68
2023/10/21 01:51:22;;;;;;;12.50;10.37;;;21.90;57.70;;;;;;5039200;28;20184;-67
2023/10/21 01:53:48;;;;;;;12.43;9.67;;;21.90;57.70;;;;;;5044055;28;20183;-67
2023/10/21 01:56:14;;;;;;;14.67;10.00;;;21.90;57.70;;;;;;5042224;28;20192;-68
2023/10/21 01:58:40;;;;;;;13.83;9.70;;;21.90;57.70;;;;;;5034935;28;20507;-66
2023/10/21 02:01:11;;;;;;;11.93;9.30;;;21.90;57.70;;;;;;5034720;28;20247;-67
2023/10/21 02:03:41;;;;;;;15.83;11.50;;;21.90;57.70;;;;;;5034403;28;20227;-66
2023/10/21 02:06:07;;;;;;;12.67;9.20;;;21.90;57.70;;;;;;5037125;28;20450;-67
2023/10/21 02:08:33;;;;;;;12.30;9.50;;;21.90;57.70;;;;;;5046039;28;20437;-68
2023/10/21 02:10:59;;;;;;;12.57;9.30;;;21.90;57.70;;;;;;5034219;28;20183;-66
2023/10/21 02:13:24;;;;;;;11.03;9.23;;;21.90;57.60;;;;;;5037035;28;20198;-67
2023/10/21 02:15:50;;;;;;;10.83;8.80;;;21.90;57.60;;;;;;5051790;28;20202;-67
2023/10/21 02:18:17;;;;;;;14.17;11.00;;;21.90;57.70;;;;;;5054942;28;20573;-67
2023/10/21 02:20:42;;;;;;;11.73;9.33;;;21.90;57.70;;;;;;5050517;28;20434;-66
2023/10/21 02:23:08;;;;;;;12.63;10.10;;;21.90;57.60;;;;;;5048303;28;20465;-68
2023/10/21 02:25:34;;;;;;;8.73;7.63;;;21.90;57.60;;;;;;5051600;28;20221;-67
2023/10/21 02:28:03;;;;;;;12.03;10.13;;;21.90;57.60;;;;;;5034952;28;20646;-68
2023/10/21 02:30:31;;;;;;;10.73;9.27;;;21.90;57.60;;;;;;5034635;28;20180;-67
2023/10/21 02:32:57;;;;;;;11.30;9.90;;;21.90;57.60;;;;;;5045238;28;20437;-67
2023/10/21 02:35:22;;;;;;;9.80;8.80;;;21.90;57.60;;;;;;5052667;28;20540;-68
2023/10/21 02:37:48;;;;;;;10.50;8.17;;;21.90;57.60;;;;;;5034334;28;20190;-67
2023/10/21 02:40:16;;;;;;;10.70;9.33;;;21.90;57.60;;;;;;5041085;28;20198;-67
2023/10/21 02:42:43;;;;;;;12.00;10.00;;;21.90;57.60;;;;;;5053140;28;20203;-68
2023/10/21 02:45:09;;;;;;;10.57;9.00;;;21.90;57.60;;;;;;5053489;28;20949;-67
2023/10/21 02:47:36;;;;;;;12.67;9.60;;;21.90;57.70;;;;;;5050800;28;20433;-67
2023/10/21 02:50:03;;;;;;;10.87;9.33;;;21.90;57.60;;;;;;5034421;28;20434;-67
2023/10/21 02:52:28;;;;;;;10.13;9.07;;;21.90;57.60;;;;;;5035232;28;20944;-68
2023/10/21 02:54:54;;;;;;;10.67;8.80;;;21.90;57.60;;;;;;5045760;28;20453;-67
2023/10/21 02:57:20;;;;;;;12.13;9.10;;;21.90;57.60;;;;;;5053832;28;20187;-67
2023/10/21 02:59:46;;;;;;;13.67;9.03;;;21.90;57.60;;;;;;5053025;28;20175;-67
2023/10/21 03:02:13;;;;;;;10.50;9.27;;;21.90;57.60;;;;;;5054518;28;20171;-67
2023/10/21 03:04:42;;;;;;;11.37;9.73;;;21.90;57.60;;;;;;5044794;28;20458;-67
2023/10/21 03:07:07;;;;;;;10.80;9.70;;;21.90;57.60;;;;;;5047867;28;20952;-67
2023/10/21 03:09:33;;;;;;;9.13;8.23;;;21.90;57.60;;;;;;5053609;28;20467;-67
2023/10/21 03:11:58;;;;;;;11.23;9.27;;;21.90;57.60;;;;;;5054279;28;20193;-67
2023/10/21 03:14:24;;;;;;;10.77;9.50;;;21.90;57.60;;;;;;5052841;28;20227;-67
2023/10/21 03:16:50;;;;;;;10.67;8.97;;;21.90;57.70;;;;;;5053464;28;20660;-67
2023/10/21 03:19:15;;;;;;;11.17;9.13;;;21.90;57.60;;;;;;5056934;28;20190;-66
2023/10/21 03:21:41;;;;;;;10.50;9.10;;;21.90;57.60;;;;;;5058505;28;20171;-68
2023/10/21 03:24:07;;;;;;;9.60;8.60;;;21.90;57.70;;;;;;5056031;28;20238;-67
2023/10/21 03:26:33;;;;;;;10.63;8.77;;;21.90;57.60;;;;;;5047754;28;20175;-68
2023/10/21 03:28:58;;;;;;;9.90;8.87;;;21.90;57.60;;;;;;5057562;28;20804;-67
2023/10/21 03:31:24;;;;;;;9.70;8.00;;;21.90;57.60;;;;;;5058013;28;20265;-67
2023/10/21 03:33:50;;;;;;;9.43;7.90;;;21.90;57.60;;;;;;5057898;28;20167;-67
2023/10/21 03:36:15;;;;;;;8.63;7.73;;;21.90;57.60;;;;;;5051113;28;20255;-67
2023/10/21 03:38:42;;;;;;;12.50;8.40;;;21.90;57.60;;;;;;5039193;28;20255;-66
2023/10/21 03:41:10;;;;;;;10.27;9.17;;;21.90;57.60;;;;;;5037726;28;20175;-67
2023/10/21 03:43:36;;;;;;;9.60;8.60;;;21.90;57.60;;;;;;5040180;28;20515;-68
2023/10/21 03:46:06;;;;;;;10.10;8.23;;;21.90;57.60;;;;;;5038564;28;20535;-67
2023/10/21 03:48:32;;;;;;;8.93;7.47;;;21.90;57.60;;;;;;5036918;28;20484;-68
2023/10/21 03:51:06;;;;;;;9.30;7.73;;;21.90;57.50;;;;;;5044261;28;20425;-66
2023/10/21 03:53:34;;;;;;;12.70;8.37;;;21.90;57.50;;;;;;5053939;28;20485;-67
2023/10/21 03:56:01;;;;;;;10.37;8.63;;;21.90;57.50;;;;;;5045347;28;20538;-68
2023/10/21 03:58:26;;;;;;;8.60;7.70;;;21.90;57.50;;;;;;5057161;28;20827;-68
2023/10/21 04:00:54;;;;;;;13.40;8.50;;;21.90;57.50;;;;;;5057516;28;20405;-66
2023/10/21 04:03:20;;;;;;;11.73;7.40;;;21.90;57.50;;;;;;5057420;28;20190;-67
2023/10/21 04:05:46;;;;;;;9.00;7.40;;;21.80;57.40;;;;;;5055430;28;20594;-67
2023/10/21 04:08:11;;;;;;;9.97;8.70;;;21.90;57.50;;;;;;5056728;28;20448;-68
2023/10/21 04:10:37;;;;;;;10.33;8.67;;;21.90;57.40;;;;;;5057366;28;20550;-67
2023/10/21 04:13:03;;;;;;;8.40;6.57;;;21.90;57.50;;;;;;5057321;28;20214;-67
2023/10/21 04:15:29;;;;;;;9.43;7.30;;;21.80;57.40;;;;;;5056347;28;20210;-67
2023/10/21 04:17:55;;;;;;;9.30;7.53;;;21.90;57.40;;;;;;5055695;28;20520;-67
2023/10/21 04:20:21;;;;;;;10.27;8.17;;;21.90;57.50;;;;;;5054647;28;20195;-68
2023/10/21 04:22:47;;;;;;;11.80;9.20;;;21.90;57.40;;;;;;5057097;28;20194;-67
2023/10/21 04:25:13;;;;;;;9.40;8.40;;;21.90;57.50;;;;;;5056749;28;20516;-66
2023/10/21 04:27:39;;;;;;;11.20;8.20;;;21.80;57.40;;;;;;5044840;28;20663;-67
2023/10/21 04:30:05;;;;;;;11.00;7.83;;;21.80;57.50;;;;;;5034640;28;20488;-67
2023/10/21 04:32:31;;;;;;;9.13;8.13;;;21.80;57.50;;;;;;5051435;28;20186;-67
2023/10/21 04:34:58;;;;;;;8.63;7.77;;;21.80;57.50;;;;;;5047062;28;20489;-65
2023/10/21 04:37:23;;;;;;;10.07;8.00;;;21.80;57.60;;;;;;5045040;28;20524;-68
2023/10/21 04:39:49;;;;;;;9.53;8.53;;;21.80;57.50;;;;;;5057400;28;20433;-67
2023/10/21 04:42:15;;;;;;;11.30;8.20;;;21.80;57.50;;;;;;5052049;28;20248;-67
2023/10/21 04:44:40;;;;;;;9.20;7.43;;;21.90;57.60;;;;;;5057033;28;20678;-67
2023/10/21 04:47:06;;;;;;;10.57;7.87;;;21.90;57.60;;;;;;5047048;28;20187;-68
2023/10/21 04:49:32;;;;;;;9.67;7.60;;;21.80;57.60;;;;;;5050749;28;20539;-66
2023/10/21 04:51:58;;;;;;;8.53;7.63;;;21.90;57.60;;;;;;5065149;28;20178;-68
2023/10/21 04:54:23;;;;;;;10.40;7.87;;;21.90;58.20;;;;;;5060552;28;20508;-67
2023/10/21 04:56:49;;;;;;;8.37;6.97;;;21.90;57.60;;;;;;5049059;28;20270;-67
2023/10/21 04:59:14;;;;;;;8.43;7.47;;;21.80;57.50;;;;;;5036610;28;20306;-68
2023/10/21 05:01:40;;;;;;;9.30;7.20;;;21.90;57.60;;;;;;5039500;28;20186;-67
2023/10/21 05:04:06;;;;;;;9.40;7.57;;;21.90;57.60;;;;;;5056330;28;20589;-68
2023/10/21 05:06:31;;;;;;;8.07;7.27;;;21.90;57.60;;;;;;5052461;28;20217;-67
2023/10/21 05:08:58;;;;;;;9.40;7.87;;;21.80;57.50;;;;;;5056853;28;20201;-67
2023/10/21 05:11:23;;;;;;;9.30;7.87;;;21.90;57.60;;;;;;5056469;28;20163;-69
2023/10/21 05:13:49;;;;;;;10.33;7.93;;;21.90;57.60;;;;;;5055907;28;20500;-67
2023/10/21 05:16:14;;;;;;;9.10;7.47;;;21.90;57.60;;;;;;5055245;28;20171;-68
2023/10/21 05:18:40;;;;;;;8.40;7.20;;;21.90;57.60;;;;;;5056195;28;20244;-67
2023/10/21 05:21:08;;;;;;;9.90;7.63;;;21.90;57.60;;;;;;5054400;28;20295;-67
2023/10/21 05:23:34;;;;;;;9.37;8.00;;;21.90;57.60;;;;;;5056258;28;20199;-67
2023/10/21 05:26:00;;;;;;;7.80;7.00;;;21.90;57.60;;;;;;5055975;28;20428;-69
2023/10/21 05:28:25;;;;;;;8.57;7.40;;;21.80;57.50;;;;;;5055495;28;20182;-66
2023/10/21 05:30:51;;;;;;;7.60;6.80;;;21.90;57.60;;;;;;5054744;28;20180;-67
2023/10/21 05:33:17;;;;;;;8.37;7.17;;;21.80;57.50;;;;;;5067339;28;20181;-67
2023/10/21 05:35:42;;;;;;;8.57;6.90;;;21.90;57.60;;;;;;5055546;28;20203;-67
2023/10/21 05:38:08;;;;;;;8.10;6.90;;;21.90;57.50;;;;;;5055442;28;20623;-67
2023/10/21 05:40:35;;;;;;;10.33;7.10;;;21.80;57.50;;;;;;5056105;28;20167;-68
2023/10/21 05:43:00;;;;;;;7.40;6.70;;;21.80;57.50;;;;;;5055974;28;20226;-67
2023/10/21 05:45:26;;;;;;;9.30;7.23;;;21.90;57.50;;;;;;5055080;28;20449;-68
2023/10/21 05:47:53;;;;;;;7.53;6.73;;;21.90;57.60;;;;;;5046517;28;20210;-67
2023/10/21 05:50:20;;;;;;;8.47;6.83;;;21.90;57.60;;;;;;5037685;28;20222;-67
2023/10/21 05:52:46;;;;;;;7.80;6.20;;;21.80;57.50;;;;;;5036004;28;20415;-67
2023/10/21 05:55:12;;;;;;;9.47;7.53;;;21.80;57.40;;;;;;5036203;28;20437;-68
2023/10/21 05:57:38;;;;;;;7.33;6.60;;;21.80;57.40;;;;;;5047854;28;20433;-66
2023/10/21 06:00:07;;;;;;;7.50;6.70;;;21.90;57.40;;;;;;5038279;28;20230;-68
2023/10/21 06:02:33;;;;;;;6.70;6.03;;;21.90;57.50;;;;;;5041137;28;20256;-68
2023/10/21 06:04:58;;;;;;;6.50;5.67;;;21.90;57.50;;;;;;5041030;28;20528;-67
2023/10/21 06:07:24;;;;;;;7.47;6.53;;;21.90;57.50;;;;;;5039598;28;20254;-68
2023/10/21 06:09:49;;;;;;;8.10;6.97;;;21.80;57.40;;;;;;5036760;28;20234;-68
2023/10/21 06:12:15;;;;;;;8.80;6.60;;;21.90;57.50;;;;;;5045817;28;20183;-68
2023/10/21 06:14:41;;;;;;;6.93;5.93;;;21.90;57.50;;;;;;5051590;28;20199;-67
2023/10/21 06:17:06;;;;;;;9.20;6.97;;;21.80;57.60;;;;;;5035494;28;20258;-67
2023/10/21 06:19:32;;;;;;;6.77;5.90;;;21.90;57.60;;;;;;5036527;28;20190;-66
2023/10/21 06:21:58;;;;;;;7.57;6.77;;;21.90;57.60;;;;;;5036014;28;20257;-66
2023/10/21 06:24:24;;;;;;;8.03;5.93;;;21.80;57.60;;;;;;5048506;28;20601;-67
2023/10/21 06:26:50;;;;;;;7.00;6.20;;;21.80;57.50;;;;;;5049749;28;20191;-68
2023/10/21 06:29:16;;;;;;;7.77;6.97;;;21.90;57.60;;;;;;5055796;28;20406;-67
2023/10/21 06:31:41;;;;;;;7.33;6.50;;;21.90;57.60;;;;;;5055672;28;20182;-67
2023/10/21 06:34:08;;;;;;;8.00;7.20;;;21.80;57.50;;;;;;5054386;28;20294;-67
2023/10/21 06:36:34;;;;;;;7.87;6.33;;;21.90;57.60;;;;;;5042770;28;20187;-67
2023/10/21 06:39:00;;;;;;;7.37;6.43;;;21.80;57.50;;;;;;5041434;28;20436;-67
2023/10/21 06:41:25;;;;;;;8.40;6.80;;;21.90;57.60;;;;;;5054033;28;20178;-68
2023/10/21 06:43:51;;;;;;;8.10;5.87;;;21.80;57.50;;;;;;5050918;28;20465;-67
2023/10/21 06:46:18;;;;;;;8.07;7.27;;;21.90;57.60;;;;;;5055160;28;20171;-66
2023/10/21 06:48:43;;;;;;;8.17;6.23;;;21.90;57.70;;;;;;5054952;28;20183;-66
2023/10/21 06:51:09;;;;;;;6.87;6.10;;;21.90;57.60;;;;;;5050599;28;20448;-70
2023/10/21 06:53:34;;;;;;;8.20;6.67;;;21.90;57.70;;;;;;5036153;28;20572;-67
2023/10/21 06:56:00;;;;;;;7.20;6.03;;;21.80;57.60;;;;;;5053877;28;20218;-68
2023/10/21 06:58:27;;;;;;;8.50;6.97;;;21.90;57.70;;;;;;5055613;28;20183;-67
2023/10/21 07:00:52;;;;;;;9.23;6.07;;;21.80;57.60;;;;;;5043591;28;20199;-67
2023/10/21 07:03:18;;;;;;;6.70;6.00;;;21.90;57.70;;;;;;5041784;28;20458;-67
2023/10/21 07:05:45;;;;;;;8.73;6.57;;;21.90;57.70;;;;;;5040757;28;20233;-67
2023/10/21 07:08:11;;;;;;;8.90;6.33;;;21.80;57.60;;;;;;5035740;28;20190;-67
2023/10/21 07:10:38;;;;;;;8.50;5.90;;;21.90;57.70;;;;;;5036099;28;20438;-66
2023/10/21 07:13:04;;;;;;;7.50;6.03;;;21.90;57.70;;;;;;5034907;28;20446;-66
2023/10/21 07:15:31;;;;;;;6.43;5.33;;;21.90;57.60;;;;;;5034713;28;21023;-68
2023/10/21 07:17:57;;;;;;;9.93;6.67;;;21.90;57.60;;;;;;5035133;28;20254;-68
2023/10/21 07:20:23;;;;;;;10.10;6.83;;;21.90;57.60;;;;;;5036362;28;20446;-67
2023/10/21 07:22:49;;;;;;;6.73;6.03;;;21.90;57.60;;;;;;5033501;28;20462;-66
2023/10/21 07:25:18;;;;;;;7.60;6.43;;;21.90;57.60;;;;;;5049133;28;20449;-68
2023/10/21 07:27:44;;;;;;;7.63;6.53;;;21.90;57.70;;;;;;5054888;28;20170;-67
2023/10/21 07:30:09;;;;;;;5.97;5.37;;;21.90;57.70;;;;;;5047545;28;20440;-66
2023/10/21 07:32:35;;;;;;;7.80;5.90;;;21.90;57.70;;;;;;5034599;28;20418;-67
2023/10/21 07:35:01;;;;;;;7.70;6.30;;;21.90;57.70;;;;;;5034726;28;20196;-65
2023/10/21 07:37:26;;;;;;;6.93;5.50;;;21.90;57.70;;;;;;5034957;28;20191;-68
2023/10/21 07:39:52;;;;;;;6.00;5.20;;;21.90;57.60;;;;;;5040833;28;20183;-67
2023/10/21 07:42:17;;;;;;;6.50;5.80;;;21.90;57.70;;;;;;5043577;28;20218;-68
2023/10/21 07:44:47;;;;;;;6.93;5.53;;;21.90;57.70;;;;;;5035218;28;20188;-67
2023/10/21 07:47:13;;;;;;;6.90;5.30;;;21.90;57.70;;;;;;5033219;28;20472;-67
2023/10/21 07:49:38;;;;;;;7.80;6.00;;;21.90;57.70;;;;;;5044634;28;20429;-68
2023/10/21 07:52:04;;;;;;;7.57;5.90;;;21.90;57.70;;;;;;5043412;28;20180;-69
2023/10/21 07:54:30;;;;;;;6.60;5.53;;;21.90;57.80;;;;;;5041626;28;20202;-68
2023/10/21 07:56:56;;;;;;;6.20;5.37;;;21.90;57.80;;;;;;5037574;28;20449;-67
2023/10/21 07:59:22;;;;;;;7.77;6.00;;;21.90;57.80;;;;;;5037836;28;20207;-67
2023/10/21 08:01:48;;;;;;;5.90;5.13;;;21.90;57.90;;;;;;5040748;28;20180;-68
2023/10/21 08:04:13;;;;;;;5.50;4.83;;;21.90;57.90;;;;;;5035487;28;20466;-67
2023/10/21 08:06:41;;;;;;;6.63;5.17;;;21.90;57.90;;;;;;5040668;28;20973;-66
2023/10/21 08:09:08;;;;;;;5.37;4.83;;;21.90;57.90;;;;;;5048385;28;20172;-66
2023/10/21 08:11:33;;;;;;;6.67;5.70;;;21.90;57.90;;;;;;5038961;28;20434;-67
2023/10/21 08:13:59;;;;;;;6.43;5.20;;;21.90;57.90;;;;;;5040735;28;20467;-67
2023/10/21 08:16:25;;;;;;;5.37;4.70;;;21.90;57.90;;;;;;5056111;28;20195;-67
2023/10/21 08:18:50;;;;;;;6.30;5.23;;;21.90;57.90;;;;;;5056721;28;20195;-66
2023/10/21 08:21:18;;;;;;;5.00;4.27;;;21.90;57.90;;;;;;5057725;28;20298;-67
2023/10/21 08:23:43;;;;;;;5.60;5.10;;;21.90;57.90;;;;;;5054893;28;20321;-67
2023/10/21 08:26:09;;;;;;;6.10;5.10;;;21.90;57.90;;;;;;5037589;28;20437;-67
2023/10/21 08:28:35;;;;;;;7.07;4.70;;;21.90;57.90;;;;;;5037608;28;20191;-67
2023/10/21 08:31:00;;;;;;;5.90;5.20;;;22.00;58.00;;;;;;5041871;28;20172;-67
2023/10/21 08:33:26;;;;;;;6.60;5.70;;;22.00;58.00;;;;;;5038014;28;20178;-67
2023/10/21 08:35:52;;;;;;;5.60;5.07;;;22.00;58.00;;;;;;5050446;28;20564;-66
2023/10/21 08:38:17;;;;;;;5.90;4.60;;;22.00;58.00;;;;;;5057235;28;20668;-68
2023/10/21 08:40:46;;;;;;;5.90;4.70;;;22.00;58.00;;;;;;5035898;28;20190;-68
2023/10/21 08:43:15;;;;;;;6.07;5.47;;;22.00;57.90;;;;;;5049682;28;20203;-65
2023/10/21 08:45:42;;;;;;;5.20;4.40;;;21.90;57.90;;;;;;5036986;28;20442;-67
2023/10/21 08:48:11;;;;;;;6.20;4.87;;;21.90;57.90;;;;;;5037335;28;20413;-67
2023/10/21 08:50:39;;;;;;;5.50;4.90;;;22.00;58.00;;;;;;5047592;28;20429;-67
2023/10/21 08:53:11;;;;;;;5.60;5.10;;;21.90;58.00;;;;;;5056754;28;20549;-67
2023/10/21 08:55:38;;;;;;;5.47;4.53;;;22.00;58.10;;;;;;5057701;28;20449;-67
2023/10/21 08:58:06;;;;;;;6.40;5.10;;;22.00;58.10;;;;;;5055731;28;20943;-68
2023/10/21 09:00:32;;;;;;;4.40;4.00;;;22.00;58.00;;;;;;5056038;28;21030;-67
2023/10/21 09:02:58;;;;;;;5.30;4.67;;;22.00;58.00;;;;;;5040763;28;20462;-67
2023/10/21 09:05:23;;;;;;;5.83;4.63;;;22.00;58.00;;;;;;5036965;28;20441;-67
2023/10/21 09:07:49;;;;;;;5.60;4.47;;;22.00;58.00;;;;;;5037118;28;20164;-67
2023/10/21 09:10:20;;;;;;;5.77;4.90;;;22.00;58.60;;;;;;5036740;28;20646;-68
2023/10/21 09:12:46;;;;;;;5.40;3.97;;;22.00;58.10;;;;;;5036561;28;20395;-67
2023/10/21 09:15:12;;;;;;;5.30;4.53;;;22.00;58.10;;;;;;5051004;28;20457;-66
2023/10/21 09:18:01;;;;;;;5.10;4.20;;;22.00;58.10;;;;;;5036523;28;20241;-67
2023/10/21 09:20:26;;;;;;;4.53;4.00;;;22.00;58.10;;;;;;5035905;28;20441;-66
2023/10/21 09:22:52;;;;;;;4.57;4.00;;;22.00;58.10;;;;;;5036512;28;20485;-67
2023/10/21 09:25:19;;;;;;;5.00;4.00;;;22.00;58.10;;;;;;5036724;28;20191;-67
2023/10/21 09:27:55;;;;;;;7.67;5.20;;;22.00;58.10;;;;;;5036572;28;20407;-68
2023/10/21 09:30:26;;;;;;;6.50;4.67;;;22.00;58.10;;;;;;5057014;28;20393;-68
2023/10/21 09:33:00;;;;;;;5.53;3.60;;;22.00;58.10;;;;;;5055772;28;20405;-68
2023/10/21 09:35:30;;;;;;;4.97;4.47;;;22.00;58.10;;;;;;5049236;28;20458;-66
2023/10/21 09:37:56;;;;;;;5.80;4.20;;;22.00;58.00;;;;;;5032106;28;20460;-67
2023/10/21 09:40:24;;;;;;;4.37;4.00;;;22.00;57.90;;;;;;5032891;28;20406;-67
2023/10/21 09:42:52;;;;;;;5.37;4.27;;;22.00;58.00;;;;;;5029598;28;20457;-68
2023/10/21 09:45:18;;;;;;;4.23;3.83;;;22.00;58.00;;;;;;5031058;28;20430;-68
2023/10/21 09:47:47;;;;;;;5.90;3.73;;;22.00;58.10;;;;;;5032737;28;20904;-67
2023/10/21 09:50:14;;;;;;;4.57;3.70;;;22.00;58.00;;;;;;5040620;28;20434;-66
2023/10/21 09:53:00;;;;;;;4.67;3.97;;;22.00;58.00;;;;;;5032275;28;20438;-67
2023/10/21 09:55:31;;;;;;;3.97;3.57;;;22.00;57.90;;;;;;5032782;28;20434;-68
2023/10/21 09:57:57;;;;;;;4.40;4.00;;;22.00;57.80;;;;;;5032495;28;20449;-66
2023/10/21 10:00:24;;;;;;;4.63;4.10;;;22.00;57.80;;;;;;5032133;28;20418;-68
2023/10/21 10:02:53;;;;;;;4.73;3.77;;;22.10;57.90;;;;;;5031779;28;20463;-67
2023/10/21 10:05:20;;;;;;;5.07;4.07;;;22.00;57.80;;;;;;5048314;28;21022;-67
2023/10/21 10:07:47;;;;;;;5.03;3.90;;;22.00;57.70;;;;;;5051509;28;20884;-68
2023/10/21 10:10:15;;;;;;;5.40;3.97;;;22.00;57.70;;;;;;5050532;28;20960;-69
2023/10/21 10:12:52;;;;;;;4.70;3.50;;;22.10;57.80;;;;;;5050261;28;20413;-68
2023/10/21 10:15:31;;;;;;;4.93;3.57;;;22.10;57.90;;;;;;5050576;28;20451;-67
2023/10/21 10:17:57;;;;;;;6.20;3.50;;;22.10;57.90;;;;;;5049608;28;21015;-70
2023/10/21 10:20:25;;;;;;;5.43;4.00;;;22.10;57.90;;;;;;5052016;28;20564;-68
2023/10/21 10:23:00;;;;;;;6.33;4.00;;;22.10;57.90;;;;;;5052379;28;20838;-68
2023/10/21 10:25:33;;;;;;;4.50;3.60;;;22.10;57.90;;;;;;5052410;28;20972;-68
2023/10/21 10:28:08;;;;;;;5.00;3.90;;;22.10;57.90;;;;;;5052762;28;20783;-67
2023/10/21 10:30:43;;;;;;;5.33;4.37;;;22.10;57.90;;;;;;5053098;28;20581;-67
2023/10/21 10:33:12;;;;;;;5.20;3.50;;;22.10;57.90;;;;;;5052112;28;20433;-67
2023/10/21 10:35:53;;;;;;;4.33;3.63;;;22.10;57.90;;;;;;5052440;28;20472;-66
2023/10/21 10:38:31;;;;;;;5.80;3.40;;;22.10;57.90;;;;;;5050734;28;20936;-69
2023/10/21 10:41:10;;;;;;;3.83;3.13;;;22.10;58.00;;;;;;5048993;28;20816;-67
2023/10/21 10:43:41;;;;;;;5.30;3.27;;;22.10;57.90;;;;;;5031792;28;20975;-69
2023/10/21 10:46:07;;;;;;;4.53;3.27;;;22.10;57.90;;;;;;5034133;28;20430;-66
2023/10/21 10:48:34;;;;;;;4.47;3.10;;;22.10;57.80;;;;;;5035341;28;20525;-67
2023/10/21 10:51:06;;;;;;;3.97;2.70;;;22.10;57.80;;;;;;5035289;28;20406;-67
2023/10/21 10:53:34;;;;;;;6.57;3.57;;;22.10;57.80;;;;;;5034877;28;20830;-65
2023/10/21 10:55:59;;;;;;;4.93;3.37;;;22.10;57.80;;;;;;5034181;28;20937;-67
2023/10/21 10:58:28;;;;;;;4.53;3.57;;;22.10;57.80;;;;;;5034768;28;20465;-66
2023/10/21 11:00:54;;;;;;;3.37;2.83;;;22.10;57.80;;;;;;5054404;28;20182;-65
2023/10/21 11:03:23;;;;;;;4.23;2.83;;;22.10;57.80;;;;;;5053881;28;20481;-65
2023/10/21 11:05:50;;;;;;;4.03;2.93;;;22.10;57.80;;;;;;5047828;28;20485;-66
2023/10/21 11:08:17;;;;;;;6.13;3.43;;;22.10;57.80;;;;;;5033669;28;20798;-67
2023/10/21 11:10:42;;;;;;;5.87;3.10;;;22.10;57.80;;;;;;5034049;28;20456;-67
2023/10/21 11:13:08;;;;;;;4.63;3.03;;;22.10;57.80;;;;;;5034433;28;20414;-66
2023/10/21 11:15:44;;;;;;;7.20;3.43;;;22.10;57.80;;;;;;5047856;28;20209;-66
2023/10/21 11:18:12;;;;;;;4.43;2.73;;;22.10;57.80;;;;;;5044421;28;20199;-66
2023/10/21 11:20:47;;;;;;;5.37;2.60;;;22.10;57.80;;;;;;5036141;28;20437;-67
2023/10/21 11:23:13;;;;;;;3.17;2.70;;;22.20;57.90;;;;;;5042001;28;20488;-66
2023/10/21 11:25:41;;;;;;;4.20;2.90;;;22.10;57.80;;;;;;5033864;28;20794;-65
2023/10/21 11:28:07;;;;;;;3.90;2.37;;;22.20;57.80;;;;;;5033976;28;20635;-67
2023/10/21 11:30:34;;;;;;;5.50;3.00;;;22.20;57.90;;;;;;5033724;28;20465;-65
2023/10/21 11:33:09;;;;;;;7.27;3.03;;;22.10;57.80;;;;;;5039977;28;20179;-66
2023/10/21 11:35:45;;;;;;;4.03;2.83;;;22.20;57.90;;;;;;5047937;28;20461;-64
2023/10/21 11:38:19;;;;;;;6.70;2.73;;;22.20;57.90;;;;;;5033189;28;20885;-67
2023/10/21 11:40:45;;;;;;;4.17;2.63;;;22.20;57.90;;;;;;5041138;28;20495;-68
2023/10/21 11:43:13;;;;;;;4.77;2.93;;;22.20;58.00;;;;;;5046500;28;20468;-67
2023/10/21 11:45:39;;;;;;;2.90;2.50;;;22.10;57.90;;;;;;5056883;28;20425;-65
2023/10/21 11:48:09;;;;;;;4.07;3.17;;;22.20;58.00;;;;;;5056828;28;20401;-66
2023/10/21 11:50:43;;;;;;;6.67;3.43;;;22.10;57.90;;;;;;5048548;28;20519;-66
2023/10/21 11:53:10;;;;;;;3.10;2.57;;;22.20;58.00;;;;;;5039747;28;20459;-65
2023/10/21 12:38:39;;;;;;;3.87;3.00;;;22.10;58.10;;;;;;5056581;28;20174;-66
2023/10/21 12:41:26;;;;;;;3.03;2.73;;;22.10;58.10;;;;;;5054418;28;20423;-65
2023/10/21 12:43:55;;;;;;;4.13;2.97;;;22.10;58.10;;;;;;5054042;28;20457;-66
2023/10/21 12:46:27;;;;;;;3.60;2.30;;;22.10;58.10;;;;;;5055679;28;20429;-66
2023/10/21 12:48:53;;;;;;;4.70;3.07;;;22.10;58.10;;;;;;5056601;28;20582;-65
2023/10/21 12:51:24;;;;;;;3.60;2.70;;;22.10;58.10;;;;;;5052942;28;20465;-66
2023/10/21 12:53:50;;;;;;;3.90;2.87;;;22.10;58.00;;;;;;5035635;28;20410;-65
2023/10/21 12:56:16;;;;;;;4.80;2.90;;;22.10;58.00;;;;;;5038406;28;20434;-66
2023/10/21 12:58:42;;;;;;;3.60;2.83;;;22.10;58.00;;;;;;5054679;28;20797;-65
2023/10/21 13:01:12;;;;;;;4.20;3.30;;;22.10;58.00;;;;;;5056049;28;20665;-65
2023/10/21 13:03:41;;;;;;;4.30;3.03;;;22.10;58.00;;;;;;5049724;28;20466;-66
2023/10/21 13:06:08;;;;;;;5.63;2.87;;;22.10;58.00;;;;;;5048216;28;20433;-67
2023/10/21 13:08:35;;;;;;;2.93;2.73;;;22.10;58.00;;;;;;5051550;28;20429;-66
2023/10/21 13:11:01;;;;;;;4.87;2.70;;;22.10;58.00;;;;;;5045912;28;20456;-67
2023/10/21 13:13:35;;;;;;;3.60;2.80;;;22.10;58.00;;;;;;5040081;28;20469;-67
2023/10/21 13:16:01;;;;;;;4.50;3.80;;;22.10;58.00;;;;;;5038350;28;20195;-67
2023/10/21 13:18:27;;;;;;;5.40;3.30;;;22.10;58.00;;;;;;5042514;28;20499;-66
2023/10/21 13:20:53;;;;;;;5.73;3.00;;;22.10;58.00;;;;;;5053027;28;20913;-67
2023/10/21 13:23:19;;;;;;;3.53;3.00;;;22.10;58.00;;;;;;5040730;28;20457;-67
2023/10/21 13:25:45;;;;;;;5.10;3.63;;;22.10;58.00;;;;;;5035920;28;20469;-68